createdAt,value
2022-11-24T00:00:03.204Z,26.35
2022-11-24T00:02:30.148Z,26.73
2022-11-24T00:05:03.172Z,24.15
2022-11-24T00:07:30.172Z,22.10
2022-11-24T00:09:57.124Z,27.50
2022-11-24T00:12:30.200Z,28.95
2022-11-24T00:14:57.096Z,20.42
2022-11-24T00:17:30.252Z,20.90
2022-11-24T00:19:57.137Z,17.10
2022-11-24T00:22:30.249Z,21.88
2022-11-24T00:24:57.127Z,18.65
2022-11-24T00:27:30.188Z,17.83
2022-11-24T00:29:57.080Z,19.08
2022-11-24T00:32:37.205Z,21.58
2022-11-24T00:35:11.247Z,33.60
2022-11-24T00:37:44.219Z,35.50
2022-11-24T00:40:18.195Z,36.72
2022-11-24T00:42:51.255Z,34.83
2022-11-24T00:45:24.260Z,32.05
2022-11-24T00:47:51.193Z,25.80
2022-11-24T00:50:24.304Z,27.77
2022-11-24T00:52:57.203Z,25.60
2022-11-24T00:55:30.235Z,21.67
2022-11-24T00:58:03.233Z,16.42
2022-11-24T01:00:30.120Z,15.98
2022-11-24T01:02:57.091Z,16.10
2022-11-24T01:05:30.257Z,18.88
2022-11-24T01:08:03.327Z,15.80
2022-11-24T01:10:37.222Z,18.65
2022-11-24T01:13:04.138Z,17.48
2022-11-24T01:15:37.314Z,16.13
2022-11-24T01:18:11.223Z,19.98
2022-11-24T01:20:44.255Z,17.70
2022-11-24T01:23:11.162Z,15.77
2022-11-24T01:25:46.298Z,18.25
2022-11-24T01:28:14.148Z,21.85
2022-11-24T01:30:41.251Z,25.08
2022-11-24T01:33:14.323Z,26.65
2022-11-24T01:35:41.258Z,23.73
2022-11-24T01:38:14.224Z,18.08
2022-11-24T01:40:41.110Z,17.30
2022-11-24T01:43:24.267Z,15.88
2022-11-24T01:45:51.231Z,14.98
2022-11-24T01:48:34.258Z,20.55
2022-11-24T01:51:25.757Z,18.27
2022-11-24T01:54:04.413Z,18.98
2022-11-24T01:56:31.401Z,16.90
2022-11-24T01:58:59.475Z,20.35
2022-11-24T02:01:33.319Z,15.98
2022-11-24T02:04:08.266Z,16.17
2022-11-24T02:06:42.247Z,15.32
2022-11-24T02:09:25.237Z,13.65
2022-11-24T02:11:58.265Z,14.82
2022-11-24T02:14:25.226Z,16.50
2022-11-24T02:16:58.262Z,15.70
2022-11-24T02:19:40.526Z,13.50
2022-11-24T02:22:43.296Z,14.60
2022-11-24T02:25:49.319Z,14.65
2022-11-24T02:28:19.099Z,13.23
2022-11-24T02:30:52.366Z,13.18
2022-11-24T02:33:19.271Z,16.25
2022-11-24T02:35:46.253Z,17.13
2022-11-24T02:38:20.290Z,14.48
2022-11-24T02:40:48.092Z,16.05
2022-11-24T02:43:25.277Z,13.88
2022-11-24T02:45:52.231Z,17.13
2022-11-24T02:48:26.259Z,15.95
2022-11-24T02:50:53.167Z,11.73
2022-11-24T02:53:26.307Z,14.82
2022-11-24T02:55:53.210Z,14.80
2022-11-24T02:58:20.330Z,14.50
2022-11-24T03:00:54.303Z,14.02
2022-11-24T03:03:30.267Z,15.07
2022-11-24T03:06:03.278Z,12.93
2022-11-24T03:08:30.238Z,14.20
2022-11-24T03:11:03.332Z,17.13
2022-11-24T03:13:30.247Z,14.20
2022-11-24T03:16:03.313Z,14.00
2022-11-24T03:18:30.297Z,11.88
2022-11-24T03:21:06.272Z,14.23
2022-11-24T03:23:33.208Z,14.40
2022-11-24T03:26:17.273Z,14.40
2022-11-24T03:28:51.283Z,13.30
2022-11-24T03:31:18.214Z,12.75
2022-11-24T03:33:51.294Z,14.85
2022-11-24T03:36:18.312Z,12.93
2022-11-24T03:38:45.279Z,14.52
2022-11-24T03:41:18.312Z,12.00
2022-11-24T03:43:51.301Z,11.65
2022-11-24T03:46:25.316Z,13.35
2022-11-24T03:48:52.297Z,11.60
2022-11-24T03:51:25.321Z,14.13
2022-11-24T03:53:52.248Z,10.15
2022-11-24T03:56:25.304Z,11.93
2022-11-24T03:58:52.237Z,12.85
2022-11-24T04:01:25.325Z,10.45
2022-11-24T04:03:59.368Z,11.82
2022-11-24T04:06:26.345Z,10.52
2022-11-24T04:08:53.248Z,9.43
2022-11-24T04:11:26.297Z,13.05
2022-11-24T04:13:53.175Z,14.55
2022-11-24T04:16:26.369Z,11.73
2022-11-24T04:18:53.733Z,8.52
2022-11-24T04:21:27.410Z,10.85
2022-11-24T04:23:54.369Z,12.25
2022-11-24T04:26:27.301Z,10.23
2022-11-24T04:28:54.163Z,11.25
2022-11-24T04:31:27.418Z,12.55
2022-11-24T04:33:54.501Z,9.93
2022-11-24T04:36:28.313Z,9.02
2022-11-24T04:39:24.689Z,9.30
2022-11-24T04:41:48.350Z,9.55
2022-11-24T04:44:15.258Z,10.73
2022-11-24T04:46:48.409Z,12.45
2022-11-24T04:49:15.423Z,15.50
2022-11-24T04:51:49.313Z,11.98
2022-11-24T04:54:16.425Z,10.40
2022-11-24T04:56:43.449Z,8.38
2022-11-24T04:59:23.327Z,6.38
2022-11-24T05:01:50.267Z,12.93
2022-11-24T05:04:23.384Z,11.05
2022-11-24T05:06:50.350Z,9.63
2022-11-24T05:09:36.727Z,9.45
2022-11-24T05:12:17.365Z,9.40
2022-11-24T05:14:44.281Z,9.23
2022-11-24T05:17:11.173Z,8.13
2022-11-24T05:19:44.358Z,10.68
2022-11-24T05:22:11.305Z,7.80
2022-11-24T05:24:44.326Z,9.35
2022-11-24T05:27:11.662Z,8.93
2022-11-24T05:29:45.325Z,9.95
2022-11-24T05:32:12.398Z,9.95
2022-11-24T05:34:45.334Z,10.15
2022-11-24T05:37:18.363Z,8.57
2022-11-24T05:39:51.333Z,8.27
2022-11-24T05:42:18.343Z,8.32
2022-11-24T05:44:51.403Z,10.68
2022-11-24T05:47:25.023Z,10.40
2022-11-24T05:49:58.401Z,9.52
2022-11-24T05:52:25.343Z,10.10
2022-11-24T05:54:52.265Z,10.60
2022-11-24T05:57:25.408Z,8.30
2022-11-24T05:59:58.386Z,9.73
2022-11-24T06:02:25.431Z,7.93
2022-11-24T06:04:59.358Z,9.45
2022-11-24T06:07:26.432Z,11.45
2022-11-24T06:09:54.508Z,9.57
2022-11-24T06:12:28.387Z,6.40
2022-11-24T06:15:01.415Z,10.77
2022-11-24T06:17:35.406Z,12.50
2022-11-24T06:20:08.365Z,10.68
2022-11-24T06:22:41.348Z,12.35
2022-11-24T06:25:08.936Z,11.65
2022-11-24T06:27:42.360Z,11.50
2022-11-24T06:30:10.043Z,14.93
2022-11-24T06:32:48.953Z,10.32
2022-11-24T06:35:16.629Z,11.50
2022-11-24T06:37:50.366Z,14.18
2022-11-24T06:40:17.527Z,9.90
2022-11-24T06:42:57.379Z,9.27
2022-11-24T06:45:24.300Z,7.45
2022-11-24T06:47:54.774Z,7.00
2022-11-24T06:50:33.451Z,13.25
2022-11-24T06:53:00.610Z,7.78
2022-11-24T06:55:34.341Z,17.13
2022-11-24T06:58:01.546Z,13.88
2022-11-24T07:00:35.340Z,10.02
2022-11-24T07:03:02.249Z,15.93
2022-11-24T07:05:29.195Z,35.28
2022-11-24T07:08:02.382Z,41.50
2022-11-24T07:10:29.304Z,31.00
2022-11-24T07:13:02.408Z,21.75
2022-11-24T07:15:30.030Z,15.63
2022-11-24T07:18:03.366Z,10.38
2022-11-24T07:20:30.227Z,10.52
2022-11-24T07:23:04.395Z,9.25
2022-11-24T07:25:31.268Z,7.78
2022-11-24T07:28:05.399Z,10.45
2022-11-24T07:30:32.351Z,8.88
2022-11-24T07:33:07.378Z,7.50
2022-11-24T07:35:34.297Z,8.85
2022-11-24T07:38:01.167Z,8.90
2022-11-24T07:40:34.357Z,9.85
2022-11-24T07:43:07.423Z,7.50
2022-11-24T07:45:47.488Z,9.35
2022-11-24T07:48:14.420Z,10.85
2022-11-24T07:50:52.493Z,8.25
2022-11-24T07:53:22.490Z,6.28
2022-11-24T07:56:06.366Z,8.10
2022-11-24T07:58:35.249Z,7.40
2022-11-24T08:01:23.449Z,7.07
2022-11-24T08:03:56.466Z,8.25
2022-11-24T08:06:27.407Z,9.90
2022-11-24T08:09:04.440Z,11.10
2022-11-24T08:11:37.426Z,10.18
2022-11-24T08:14:04.361Z,9.45
2022-11-24T08:16:37.508Z,26.85
2022-11-24T08:19:04.437Z,24.00
2022-11-24T08:21:37.382Z,17.88
2022-11-24T08:24:04.731Z,16.45
2022-11-24T08:26:38.398Z,11.43
2022-11-24T08:29:11.384Z,8.88
2022-11-24T08:31:45.497Z,23.42
2022-11-24T08:34:12.404Z,14.82
2022-11-24T08:36:45.487Z,10.90
2022-11-24T08:39:12.371Z,9.60
2022-11-24T08:41:45.438Z,9.35
2022-11-24T08:44:12.308Z,11.38
2022-11-24T08:46:39.241Z,8.73
2022-11-24T08:49:12.434Z,5.82
2022-11-24T08:51:39.332Z,6.55
2022-11-24T08:54:12.396Z,8.90
2022-11-24T08:56:39.318Z,10.65
2022-11-24T08:59:06.207Z,7.72
2022-11-24T09:01:39.449Z,8.02
2022-11-24T09:04:12.456Z,9.68
2022-11-24T09:06:39.333Z,8.20
2022-11-24T09:09:12.466Z,9.57
2022-11-24T09:11:45.426Z,10.35
2022-11-24T09:14:12.303Z,13.32
2022-11-24T09:16:45.446Z,18.08
2022-11-24T09:19:12.347Z,12.88
2022-11-24T09:21:45.466Z,14.23
2022-11-24T09:24:12.402Z,14.70
2022-11-24T09:26:43.283Z,9.50
2022-11-24T09:29:19.444Z,11.38
2022-11-24T09:31:52.461Z,12.45
2022-11-24T09:34:25.416Z,11.68
2022-11-24T09:36:52.240Z,12.07
2022-11-24T09:39:25.454Z,10.13
2022-11-24T09:42:10.383Z,12.13
2022-11-24T09:45:41.638Z,12.77
2022-11-24T09:48:26.820Z,12.23
2022-11-24T09:51:00.414Z,13.43
2022-11-24T09:53:27.229Z,13.90
2022-11-24T09:56:03.473Z,13.55
2022-11-24T09:59:13.447Z,11.82
2022-11-24T10:01:45.019Z,14.50
2022-11-24T10:04:35.503Z,13.23
2022-11-24T10:07:18.473Z,12.07
2022-11-24T10:10:24.984Z,11.40
2022-11-24T10:13:44.443Z,9.95
2022-11-24T10:16:29.309Z,9.77
2022-11-24T10:19:37.680Z,10.30
2022-11-24T10:22:54.468Z,15.23
2022-11-24T10:25:25.520Z,13.38
2022-11-24T10:28:14.464Z,12.65
2022-11-24T10:30:41.681Z,10.30
2022-11-24T10:33:30.815Z,10.20
2022-11-24T10:36:06.867Z,11.43
2022-11-24T10:38:57.494Z,12.68
2022-11-24T10:42:08.976Z,9.40
2022-11-24T10:44:42.510Z,8.90
2022-11-24T10:47:25.528Z,10.02
2022-11-24T10:50:02.163Z,9.27
2022-11-24T10:52:39.348Z,8.43
2022-11-24T10:55:13.522Z,8.20
2022-11-24T10:57:40.786Z,7.93
2022-11-24T11:00:26.511Z,6.85
2022-11-24T11:03:19.154Z,7.57
2022-11-24T11:06:03.547Z,7.88
2022-11-24T11:08:38.480Z,6.35
2022-11-24T11:11:18.561Z,7.15
2022-11-24T11:14:09.505Z,6.45
2022-11-24T11:16:47.578Z,7.30
2022-11-24T11:19:49.733Z,6.10
2022-11-24T11:22:37.509Z,5.55
2022-11-24T11:25:14.694Z,6.43
2022-11-24T11:27:48.497Z,4.43
2022-11-24T11:36:19.295Z,7.75
2022-11-24T11:38:52.523Z,6.30
2022-11-24T11:41:30.793Z,6.45
2022-11-24T11:44:29.471Z,5.15
2022-11-24T11:46:56.638Z,4.50
2022-11-24T11:49:30.673Z,4.93
2022-11-24T11:52:41.746Z,3.95
2022-11-24T11:55:39.559Z,4.57
2022-11-24T11:58:46.873Z,5.65
2022-11-24T12:01:45.539Z,4.97
2022-11-24T12:04:44.518Z,3.70
2022-11-24T12:07:45.636Z,4.57
2022-11-24T12:10:18.602Z,4.40
2022-11-24T12:13:06.518Z,4.10
2022-11-24T12:15:36.281Z,11.68
2022-11-24T12:18:48.625Z,7.00
2022-11-24T12:21:32.298Z,4.95
2022-11-24T12:24:14.619Z,6.93
2022-11-24T12:27:23.104Z,6.10
2022-11-24T12:30:17.575Z,6.22
2022-11-24T12:33:02.509Z,5.30
2022-11-24T12:35:47.520Z,5.05
2022-11-24T12:38:24.539Z,4.72
2022-11-24T12:41:43.719Z,3.70
2022-11-24T12:44:53.612Z,3.67
2022-11-24T12:48:07.539Z,4.00
2022-11-24T12:50:38.203Z,3.72
2022-11-24T12:53:23.798Z,3.08
2022-11-24T12:55:50.622Z,3.03
2022-11-24T12:58:42.528Z,4.13
2022-11-24T13:01:38.573Z,4.90
2022-11-24T13:04:36.823Z,5.15
2022-11-24T13:07:13.683Z,5.85
2022-11-24T13:13:18.534Z,4.75
2022-11-24T13:18:57.218Z,4.70
2022-11-24T13:21:49.551Z,4.20
2022-11-24T13:27:22.531Z,3.95
2022-11-24T13:29:50.510Z,4.05
2022-11-24T13:32:26.591Z,5.07
2022-11-24T13:34:59.533Z,3.80
2022-11-24T13:37:33.574Z,4.28
2022-11-24T13:40:18.578Z,4.38
2022-11-24T13:42:57.469Z,4.30
2022-11-24T13:45:46.642Z,4.22
2022-11-24T13:48:20.506Z,2.60
2022-11-24T13:50:57.592Z,2.95
2022-11-24T13:53:56.788Z,3.90
2022-11-24T13:56:34.565Z,5.15
2022-11-24T13:59:19.905Z,5.53
2022-11-24T14:01:53.674Z,7.72
2022-11-24T14:04:33.088Z,5.85
2022-11-24T14:07:18.637Z,6.03
2022-11-24T14:09:54.572Z,5.97
2022-11-24T14:12:29.603Z,4.38
2022-11-24T14:15:33.157Z,5.32
2022-11-24T14:18:06.595Z,7.50
2022-11-24T14:20:33.456Z,7.07
2022-11-24T14:23:06.613Z,6.85
2022-11-24T14:25:33.486Z,8.18
2022-11-24T14:28:06.676Z,7.68
2022-11-24T14:30:39.625Z,5.93
2022-11-24T14:33:11.128Z,7.03
2022-11-24T14:35:50.649Z,7.22
2022-11-24T14:38:17.533Z,7.00
2022-11-24T14:40:50.513Z,8.43
2022-11-24T14:43:38.597Z,9.20
2022-11-24T14:46:14.636Z,9.30
2022-11-24T14:48:51.762Z,10.98
2022-11-24T14:51:30.610Z,8.82
2022-11-24T14:54:02.833Z,7.10
2022-11-24T14:56:45.596Z,10.05
2022-11-24T14:59:24.018Z,11.13
2022-11-24T15:01:57.902Z,12.52
2022-11-24T15:07:30.691Z,15.20
2022-11-24T15:10:01.532Z,13.98
2022-11-24T15:12:46.657Z,12.30
2022-11-24T15:15:18.826Z,18.55
2022-11-24T15:18:01.682Z,20.02
2022-11-24T15:20:36.694Z,15.25
2022-11-24T15:23:37.667Z,15.43
2022-11-24T15:26:10.693Z,14.75
2022-11-24T15:28:37.619Z,21.70
2022-11-24T15:31:13.653Z,38.58
2022-11-24T15:33:41.050Z,38.38
2022-11-24T15:36:14.687Z,35.00
2022-11-24T15:38:41.555Z,34.55
2022-11-24T15:41:28.642Z,47.22
2022-11-24T15:43:55.553Z,46.30
2022-11-24T15:46:22.511Z,48.90
2022-11-24T15:48:55.658Z,50.67
2022-11-24T15:51:24.680Z,47.80
2022-11-24T15:54:02.686Z,59.30
2022-11-24T15:56:40.680Z,60.58
2022-11-24T15:59:20.610Z,33.78
2022-11-24T16:01:54.699Z,27.52
2022-11-24T16:04:21.593Z,25.92
2022-11-24T16:06:48.445Z,21.38
2022-11-24T16:09:21.856Z,21.10
2022-11-24T16:11:55.656Z,19.67
2022-11-24T16:14:22.546Z,15.55
2022-11-24T16:16:49.590Z,15.07
2022-11-24T16:19:22.701Z,14.30
2022-11-24T16:21:49.616Z,12.57
2022-11-24T16:24:22.681Z,13.40
2022-11-24T16:26:49.562Z,17.13
2022-11-24T16:29:22.664Z,21.35
2022-11-24T16:31:51.582Z,23.50
2022-11-24T16:34:24.688Z,15.43
2022-11-24T16:36:51.566Z,17.50
2022-11-24T16:39:18.416Z,15.90
2022-11-24T16:41:51.717Z,14.75
2022-11-24T16:44:18.589Z,21.30
2022-11-24T16:46:51.669Z,18.65
2022-11-24T16:49:18.795Z,21.23
2022-11-24T16:51:51.689Z,17.70
2022-11-24T16:54:24.717Z,14.65
2022-11-24T16:56:52.077Z,16.98
2022-11-24T16:59:25.704Z,13.73
2022-11-24T17:01:52.665Z,12.18
2022-11-24T17:04:25.724Z,10.80
2022-11-24T17:06:52.579Z,13.80
2022-11-24T17:09:25.693Z,10.95
2022-11-24T17:11:52.627Z,11.35
2022-11-24T17:14:25.715Z,12.32
2022-11-24T17:16:58.790Z,16.95
2022-11-24T17:19:26.341Z,21.83
2022-11-24T17:21:53.313Z,20.65
2022-11-24T17:24:26.714Z,22.95
2022-11-24T17:26:53.640Z,26.90
2022-11-24T17:29:26.706Z,24.25
2022-11-24T17:31:53.704Z,23.05
2022-11-24T17:34:27.747Z,19.70
2022-11-24T17:37:00.720Z,20.23
2022-11-24T17:39:33.731Z,14.98
2022-11-24T17:42:00.618Z,13.77
2022-11-24T17:44:27.602Z,15.77
2022-11-24T17:47:00.688Z,15.75
2022-11-24T17:49:33.746Z,13.18
2022-11-24T17:52:06.740Z,15.27
2022-11-24T17:54:46.271Z,20.45
2022-11-24T17:57:23.999Z,17.58
2022-11-24T17:59:57.746Z,18.90
2022-11-24T18:02:24.674Z,14.23
2022-11-24T18:04:57.751Z,19.33
2022-11-24T18:07:24.643Z,17.58
2022-11-24T18:09:57.777Z,17.48
2022-11-24T18:12:30.705Z,17.48
2022-11-24T18:14:57.616Z,19.08
2022-11-24T18:17:30.780Z,21.05
2022-11-24T18:19:57.769Z,16.20
2022-11-24T18:22:57.736Z,16.20
2022-11-24T18:25:23.762Z,13.50
2022-11-24T18:27:50.620Z,13.73
2022-11-24T18:30:17.808Z,13.23
2022-11-24T18:32:50.744Z,13.75
2022-11-24T18:35:17.745Z,16.10
2022-11-24T18:37:58.733Z,16.45
2022-11-24T18:40:25.663Z,15.88
2022-11-24T18:42:58.777Z,20.90
2022-11-24T18:45:26.212Z,31.75
2022-11-24T18:47:59.772Z,26.77
2022-11-24T18:50:26.634Z,26.27
2022-11-24T18:52:53.566Z,23.77
2022-11-24T18:55:26.805Z,26.08
2022-11-24T18:58:00.776Z,34.70
2022-11-24T19:00:33.777Z,35.70
2022-11-24T19:03:00.818Z,35.00
2022-11-24T19:05:33.781Z,38.75
2022-11-24T19:08:06.798Z,52.75
2022-11-24T19:10:40.186Z,101.05
2022-11-24T19:13:13.725Z,84.55
2022-11-24T19:15:40.556Z,36.70
2022-11-24T19:18:13.768Z,23.65
2022-11-24T19:20:46.808Z,19.27
2022-11-24T19:23:19.792Z,17.33
2022-11-24T19:25:52.776Z,13.52
2022-11-24T19:28:25.819Z,19.77
2022-11-24T19:30:52.738Z,18.38
2022-11-24T19:33:25.791Z,21.08
2022-11-24T19:36:23.758Z,18.83
2022-11-24T19:38:55.138Z,18.73
2022-11-24T19:41:30.803Z,21.35
2022-11-24T19:44:01.363Z,21.90
2022-11-24T19:46:34.885Z,27.70
2022-11-24T19:49:08.741Z,26.20
2022-11-24T19:51:43.875Z,25.70
2022-11-24T19:54:11.174Z,27.02
2022-11-24T19:56:38.185Z,26.80
2022-11-24T19:59:12.841Z,26.25
2022-11-24T20:01:47.042Z,20.75
2022-11-24T20:04:14.440Z,16.45
2022-11-24T20:06:51.841Z,14.00
2022-11-24T20:09:18.926Z,15.85
2022-11-24T20:11:48.551Z,16.10
2022-11-24T20:14:22.856Z,13.90
2022-11-24T20:16:56.925Z,16.08
2022-11-24T20:19:30.897Z,17.13
2022-11-24T20:21:57.896Z,18.27
2022-11-24T20:24:31.858Z,20.90
2022-11-24T20:26:58.960Z,18.63
2022-11-24T20:29:32.875Z,19.77
2022-11-24T20:32:00.093Z,16.33
2022-11-24T20:34:34.363Z,17.05
2022-11-24T20:37:07.881Z,18.70
2022-11-24T20:39:34.959Z,17.08
2022-11-24T20:42:02.019Z,18.65
2022-11-24T20:44:36.103Z,21.15
2022-11-24T20:47:03.447Z,20.00
2022-11-24T20:49:37.008Z,18.10
2022-11-24T20:52:04.200Z,15.43
2022-11-24T20:54:38.086Z,18.40
2022-11-24T20:57:05.108Z,19.52
2022-11-24T20:59:32.130Z,16.02
2022-11-24T21:02:05.898Z,19.98
2022-11-24T21:04:33.236Z,18.42
2022-11-24T21:07:06.993Z,18.13
2022-11-24T21:09:34.126Z,19.02
2022-11-24T21:12:01.236Z,16.98
2022-11-24T21:14:35.464Z,18.80
2022-11-24T21:17:02.665Z,18.70
2022-11-24T21:19:37.059Z,15.75
2022-11-24T21:22:10.908Z,18.52
2022-11-24T21:24:38.018Z,20.48
2022-11-24T21:27:11.993Z,26.88
2022-11-24T21:29:39.031Z,22.83
2022-11-24T21:32:06.141Z,22.35
2022-11-24T21:34:39.937Z,22.48
2022-11-24T21:37:13.896Z,25.73
2022-11-24T21:39:40.976Z,43.65
2022-11-24T21:42:08.058Z,57.72
2022-11-24T21:44:41.894Z,60.35
2022-11-24T21:47:08.929Z,67.82
2022-11-24T21:49:42.953Z,44.60
2022-11-24T21:52:10.016Z,74.65
2022-11-24T21:54:44.004Z,86.28
2022-11-24T21:57:11.032Z,62.53
2022-11-24T21:59:44.893Z,29.25
2022-11-24T22:02:18.873Z,22.20
2022-11-24T22:04:45.997Z,18.63
2022-11-24T22:07:19.932Z,19.30
2022-11-24T22:09:46.894Z,24.95
2022-11-24T22:12:19.882Z,23.08
2022-11-24T22:14:46.849Z,25.63
2022-11-24T22:17:19.991Z,24.00
2022-11-24T22:19:47.038Z,21.45
2022-11-24T22:22:20.905Z,23.55
2022-11-24T22:24:47.937Z,22.48
2022-11-24T22:27:21.883Z,22.95
2022-11-24T22:29:53.886Z,24.27
2022-11-24T22:32:27.894Z,23.60
2022-11-24T22:34:54.958Z,23.05
2022-11-24T22:37:22.011Z,23.98
2022-11-24T22:39:55.900Z,23.15
2022-11-24T22:42:22.980Z,24.60
2022-11-24T22:44:56.925Z,24.55
2022-11-24T22:47:23.898Z,25.90
2022-11-24T22:50:01.046Z,25.52
2022-11-24T22:52:34.922Z,29.00
2022-11-24T22:55:09.024Z,35.70
2022-11-24T22:57:36.046Z,29.15
2022-11-24T23:00:11.225Z,29.08
2022-11-24T23:02:42.847Z,33.45
2022-11-24T23:05:20.725Z,36.72
2022-11-24T23:07:48.169Z,37.40
2022-11-24T23:10:25.007Z,29.65
2022-11-24T23:12:58.912Z,28.27
2022-11-24T23:15:25.973Z,24.80
2022-11-24T23:17:58.991Z,29.17
2022-11-24T23:20:26.015Z,27.08
2022-11-24T23:22:59.956Z,25.90
2022-11-24T23:25:26.906Z,30.42
2022-11-24T23:28:00.110Z,29.85
2022-11-24T23:30:31.227Z,26.50
2022-11-24T23:33:04.922Z,29.58
2022-11-24T23:35:32.776Z,29.58
2022-11-24T23:38:07.926Z,27.00
2022-11-24T23:40:41.911Z,30.67
2022-11-24T23:43:08.955Z,33.53
2022-11-24T23:45:42.005Z,41.45
2022-11-24T23:48:08.931Z,30.35
2022-11-24T23:50:41.969Z,29.17
2022-11-24T23:53:09.241Z,29.30
2022-11-24T23:55:36.109Z,30.60
2022-11-24T23:58:09.940Z,26.35
